ESGG/GOT METAR and TAF weather

Enter ICAO airport designator
Station Type Date Time Source
ESGG METAR 2020/05/30 04:50 UTC NOAA

ESGG 300450Z 03004KT CAVOK 14/03 Q1029


Station Type Date Time Source
ESGG Decoded METAR 2020/05/30 04:50 UTC NOAA

Goteborg / Landvetter, Sweden (ESGG) 57-40N 012-18E
May 30, 2020 - 12:50 AM EDT / 2020.05.30 0450 UTC
Wind: from the NNE (030 degrees) at 5 MPH (4 KT):0
Visibility: greater than 7 mile(s):0
Temperature: 57 F (14 C)
Dew Point: 37 F (3 C)
Relative Humidity: 47%
Pressure (altimeter): 30.39 in. Hg (1029 hPa)
ob: ESGG 300450Z 03004KT CAVOK 14/03 Q1029
cycle: 5

Station Type Date Time Source
ESGG TAF 2020/05/29 18:09 UTC NOAA

TAF TAF ESGG 291730Z 2918/3018 30010KT CAVOK
BECMG 2919/2921 03003KT
BECMG 3009/3011 03013KT

Example: see airport list